Time;durP1;ratioP1;P1;durP2;ratioP2;P2;SDS_P1;SDS_P2;PMS_P1;PMS_P2;Temp;Humidity;BMP_temperature;BMP_pressure;BME280_temperature;BME280_humidity;BME280_pressure;Samples;Min_cycle;Max_cycle;Signal;HPM_P1;HPM_P2
2022/11/02 00:00:33;;;;;;;7.40;2.60;;;15.70;99.60;;;;;;5007863;28;20430;-72
2022/11/02 00:03:01;;;;;;;4.03;1.80;;;15.70;99.60;;;;;;4986310;28;20441;-72
2022/11/02 00:05:27;;;;;;;8.90;1.90;;;15.70;99.60;;;;;;4977511;28;20421;-72
2022/11/02 00:07:56;;;;;;;3.37;1.93;;;15.70;99.60;;;;;;4986703;28;20451;-72
2022/11/02 00:10:28;;;;;;;8.57;2.07;;;15.70;99.90;;;;;;4996981;28;20936;-72
2022/11/02 00:13:15;;;;;;;6.83;2.67;;;15.70;99.60;;;;;;5001880;28;20439;-72
2022/11/02 00:15:46;;;;;;;8.60;2.37;;;15.70;99.70;;;;;;4977570;28;20580;-72
2022/11/02 00:18:13;;;;;;;3.83;1.77;;;15.70;99.70;;;;;;4971973;28;20440;-72
2022/11/02 00:20:46;;;;;;;5.17;2.17;;;15.70;99.80;;;;;;4989579;28;20458;-72
2022/11/02 00:23:13;;;;;;;5.80;1.80;;;15.70;99.80;;;;;;4988217;28;20478;-72
2022/11/02 00:25:49;;;;;;;4.90;2.00;;;15.70;99.90;;;;;;5011445;28;20402;-72
2022/11/02 00:28:18;;;;;;;4.00;1.70;;;15.70;99.90;;;;;;4972378;28;20456;-73
2022/11/02 00:30:44;;;;;;;8.13;2.30;;;15.60;99.90;;;;;;4976756;28;20726;-72
2022/11/02 00:33:11;;;;;;;8.37;2.13;;;15.60;99.90;;;;;;4969617;28;20431;-72
2022/11/02 00:35:41;;;;;;;2.80;1.70;;;15.70;99.90;;;;;;4995989;28;20503;-72
2022/11/02 00:38:09;;;;;;;5.87;2.10;;;15.60;99.90;;;;;;4991410;28;20453;-72
2022/11/02 00:40:37;;;;;;;5.00;2.00;;;15.60;99.90;;;;;;5005328;28;20420;-72
2022/11/02 00:43:05;;;;;;;4.57;1.73;;;15.60;99.90;;;;;;4986286;28;20416;-72
2022/11/02 00:45:31;;;;;;;3.97;1.90;;;15.60;99.90;;;;;;4976580;28;20437;-72
2022/11/02 00:47:57;;;;;;;7.00;2.30;;;15.60;99.90;;;;;;4968997;28;20448;-72
2022/11/02 00:50:25;;;;;;;8.37;2.03;;;15.60;99.90;;;;;;4996509;28;20476;-72
2022/11/02 00:52:56;;;;;;;6.50;1.80;;;15.60;99.90;;;;;;5010168;28;20461;-72
2022/11/02 00:55:23;;;;;;;4.40;1.80;;;15.60;99.90;;;;;;4948205;28;20460;-73
2022/11/02 00:57:50;;;;;;;5.87;1.77;;;15.60;99.90;;;;;;4983487;28;20997;-72
2022/11/02 01:00:16;;;;;;;5.67;1.97;;;15.60;99.90;;;;;;4975625;28;20414;-72
2022/11/02 01:02:42;;;;;;;4.33;1.87;;;15.60;99.90;;;;;;4978131;28;20440;-72
2022/11/02 01:05:12;;;;;;;4.80;2.00;;;15.60;99.90;;;;;;4989758;28;20821;-72
2022/11/02 01:07:41;;;;;;;3.40;1.57;;;15.60;99.90;;;;;;4969376;28;20430;-72
2022/11/02 01:10:09;;;;;;;8.50;1.90;;;15.60;99.90;;;;;;4960454;28;20456;-72
2022/11/02 01:12:37;;;;;;;3.97;1.63;;;15.60;99.90;;;;;;4969885;28;20445;-72
2022/11/02 01:15:04;;;;;;;5.67;1.70;;;15.60;99.90;;;;;;4979537;28;20527;-72
2022/11/02 01:17:39;;;;;;;6.37;2.00;;;15.60;99.90;;;;;;4975486;28;20745;-72
2022/11/02 01:20:10;;;;;;;5.33;2.00;;;15.60;99.90;;;;;;4976157;28;20593;-72
2022/11/02 01:22:38;;;;;;;4.40;1.70;;;15.60;99.90;;;;;;5002405;28;20427;-73
2022/11/02 01:25:08;;;;;;;9.90;2.47;;;15.60;99.90;;;;;;4976024;28;20764;-72
2022/11/02 01:27:38;;;;;;;5.70;2.10;;;15.60;99.90;;;;;;4993650;28;20492;-73
2022/11/02 01:30:05;;;;;;;8.43;3.80;;;15.60;99.90;;;;;;4998914;28;21051;-72
2022/11/02 01:32:35;;;;;;;7.40;2.03;;;15.60;99.90;;;;;;4996166;28;20447;-72
2022/11/02 01:35:06;;;;;;;7.40;2.23;;;15.60;99.90;;;;;;4940502;28;20490;-72
2022/11/02 01:37:32;;;;;;;6.40;1.90;;;15.60;99.90;;;;;;4960523;28;20495;-73
2022/11/02 01:40:00;;;;;;;5.03;1.50;;;15.60;99.90;;;;;;4977978;28;20787;-72
2022/11/02 01:42:29;;;;;;;5.90;2.33;;;15.60;99.90;;;;;;5004442;28;20426;-72
2022/11/02 01:44:55;;;;;;;6.00;2.17;;;15.60;99.90;;;;;;4992976;28;20429;-72
2022/11/02 01:47:28;;;;;;;5.70;2.00;;;15.60;99.90;;;;;;4999336;28;20424;-72
2022/11/02 01:50:11;;;;;;;5.20;1.57;;;15.60;99.90;;;;;;4983750;28;20457;-73
2022/11/02 01:52:38;;;;;;;5.23;2.53;;;15.60;99.90;;;;;;5001954;28;20470;-73
2022/11/02 01:55:15;;;;;;;2.80;1.53;;;15.60;99.90;;;;;;4963477;28;20443;-72
2022/11/02 01:57:58;;;;;;;8.17;1.63;;;15.60;99.90;;;;;;4956187;28;20495;-72
2022/11/02 02:00:24;;;;;;;5.37;1.40;;;15.60;99.90;;;;;;4951573;28;20432;-72
2022/11/02 02:03:15;;;;;;;3.77;1.67;;;15.50;99.90;;;;;;4976554;28;20834;-73
2022/11/02 02:05:50;;;;;;;7.40;2.40;;;15.60;99.90;;;;;;4991508;28;20405;-72
2022/11/02 02:08:22;;;;;;;5.33;1.90;;;15.60;99.90;;;;;;4975445;28;20527;-72
2022/11/02 02:10:48;;;;;;;6.33;1.83;;;15.50;99.90;;;;;;4960646;28;20421;-72
2022/11/02 02:13:17;;;;;;;6.80;1.77;;;15.50;99.90;;;;;;4960310;28;20517;-72
2022/11/02 02:16:10;;;;;;;7.43;2.10;;;15.50;99.90;;;;;;4973639;28;20491;-72
2022/11/02 02:18:58;;;;;;;7.77;2.23;;;15.50;99.90;;;;;;4974707;28;20468;-72
2022/11/02 02:22:03;;;;;;;5.00;1.90;;;15.50;99.90;;;;;;4962727;28;20461;-72
2022/11/02 02:24:53;;;;;;;7.20;1.50;;;15.50;99.90;;;;;;4987727;28;20476;-72
2022/11/02 02:27:50;;;;;;;7.33;2.00;;;15.50;99.90;;;;;;4960653;28;20464;-72
2022/11/02 02:30:17;;;;;;;4.40;1.77;;;15.50;99.90;;;;;;4959834;28;20473;-72
2022/11/02 02:33:09;;;;;;;3.43;1.77;;;15.50;99.90;;;;;;5003543;28;20432;-72
2022/11/02 02:35:51;;;;;;;5.97;1.80;;;15.50;99.90;;;;;;4978664;28;20517;-72
2022/11/02 02:38:34;;;;;;;6.40;1.90;;;15.50;99.90;;;;;;4975210;28;20816;-72
2022/11/02 02:41:19;;;;;;;6.50;2.07;;;15.50;99.90;;;;;;4975886;28;20586;-73
2022/11/02 02:43:52;;;;;;;5.40;2.03;;;15.50;99.90;;;;;;4975028;28;20559;-72
2022/11/02 02:46:33;;;;;;;5.60;1.60;;;15.50;99.90;;;;;;4972002;28;20565;-73
2022/11/02 02:49:00;;;;;;;5.60;2.00;;;15.50;99.90;;;;;;4979613;28;20440;-72
2022/11/02 02:51:32;;;;;;;5.67;2.17;;;15.50;99.90;;;;;;4983390;28;20825;-72
2022/11/02 02:54:01;;;;;;;6.83;1.77;;;15.50;99.90;;;;;;4972797;28;20426;-72
2022/11/02 02:56:41;;;;;;;6.70;2.17;;;15.50;99.90;;;;;;4975043;28;20463;-72
2022/11/02 02:59:12;;;;;;;5.40;1.93;;;15.50;99.90;;;;;;4964094;28;20453;-72
2022/11/02 03:01:44;;;;;;;4.70;1.93;;;15.50;99.90;;;;;;4984617;28;20414;-72
2022/11/02 03:04:12;;;;;;;8.20;2.10;;;15.50;99.90;;;;;;4998542;28;20404;-72
2022/11/02 03:06:46;;;;;;;6.97;2.53;;;15.50;99.90;;;;;;5009584;28;20787;-72
2022/11/02 03:09:38;;;;;;;7.60;2.40;;;15.50;99.90;;;;;;4985472;28;21007;-74
2022/11/02 03:12:39;;;;;;;6.23;1.90;;;15.40;99.90;;;;;;4965081;28;20461;-74
2022/11/02 03:15:29;;;;;;;5.73;1.97;;;15.50;99.90;;;;;;4961253;28;21121;-74
2022/11/02 03:18:08;;;;;;;5.20;1.70;;;15.40;99.90;;;;;;4978055;28;20472;-74
2022/11/02 03:20:56;;;;;;;6.43;1.97;;;15.40;99.90;;;;;;4970764;28;20428;-74
2022/11/02 03:23:37;;;;;;;7.37;2.40;;;15.40;99.90;;;;;;4975108;28;20461;-74
2022/11/02 03:26:28;;;;;;;3.00;1.60;;;15.40;99.90;;;;;;4972675;28;20434;-74
2022/11/02 03:29:07;;;;;;;5.27;2.20;;;15.40;99.90;;;;;;4994779;28;20530;-74
2022/11/02 03:31:59;;;;;;;5.27;2.40;;;15.40;99.90;;;;;;4992003;28;20437;-74
2022/11/02 03:34:38;;;;;;;7.33;2.03;;;15.40;99.90;;;;;;4962154;28;20404;-74
2022/11/02 03:37:18;;;;;;;3.57;1.80;;;15.40;99.90;;;;;;4989924;28;20551;-73
2022/11/02 03:39:51;;;;;;;4.43;2.13;;;15.40;99.90;;;;;;4979405;28;20527;-74
2022/11/02 03:42:21;;;;;;;6.73;1.83;;;15.40;99.90;;;;;;4968182;28;20433;-74
2022/11/02 03:44:55;;;;;;;5.10;2.10;;;15.40;99.90;;;;;;4993311;28;20423;-74
2022/11/02 03:47:29;;;;;;;6.33;1.80;;;15.40;99.90;;;;;;4958707;28;20449;-74
2022/11/02 03:49:59;;;;;;;8.87;1.60;;;15.40;99.90;;;;;;4964187;28;20455;-74
2022/11/02 03:52:30;;;;;;;5.13;1.80;;;15.40;99.90;;;;;;4988375;28;20934;-74
2022/11/02 03:55:36;;;;;;;5.63;1.87;;;15.40;99.90;;;;;;4993599;28;20498;-74
2022/11/02 03:58:10;;;;;;;4.63;1.50;;;15.40;99.90;;;;;;4928878;28;20928;-74
2022/11/02 04:00:51;;;;;;;3.50;1.50;;;15.40;99.90;;;;;;4959094;28;20454;-74
2022/11/02 04:03:22;;;;;;;5.00;1.90;;;15.40;99.90;;;;;;4977941;28;20492;-73
2022/11/02 04:05:50;;;;;;;3.60;1.63;;;15.40;99.90;;;;;;4946206;28;20438;-74
2022/11/02 04:08:35;;;;;;;9.07;2.07;;;15.40;99.90;;;;;;4996867;28;21028;-74
2022/11/02 04:16:42;;;;;;;6.50;1.70;;;15.40;99.90;;;;;;4994921;28;20447;-74
2022/11/02 04:19:29;;;;;;;10.50;2.03;;;15.40;99.90;;;;;;4961807;28;20425;-73
2022/11/02 04:27:42;;;;;;;5.83;2.03;;;15.30;99.90;;;;;;4966952;28;20508;-74
2022/11/02 04:30:10;;;;;;;5.10;1.60;;;15.30;99.80;;;;;;4961233;28;20426;-74
2022/11/02 04:35:39;;;;;;;2.20;1.40;;;15.30;99.80;;;;;;4980351;28;20450;-73
2022/11/02 04:41:40;;;;;;;8.87;2.17;;;15.30;99.70;;;;;;4978309;28;20463;-74
2022/11/02 04:43:43;;;;;;;3.97;1.73;;;15.30;99.70;;;;;;4973072;28;20513;-74
2022/11/02 04:46:10;;;;;;;7.20;2.13;;;15.30;99.70;;;;;;4982587;28;20429;-73
2022/11/02 04:48:37;;;;;;;9.03;1.70;;;15.30;99.70;;;;;;4994515;28;20442;-73
2022/11/02 04:51:06;;;;;;;6.43;2.10;;;15.30;99.60;;;;;;4982741;28;20418;-73
2022/11/02 04:53:32;;;;;;;5.37;1.87;;;15.30;99.60;;;;;;4948538;28;20622;-73
2022/11/02 04:56:32;;;;;;;6.27;2.20;;;15.30;99.60;;;;;;4980157;28;20506;-73
2022/11/02 04:59:00;;;;;;;4.90;1.70;;;15.30;99.60;;;;;;4983079;28;20481;-73
2022/11/02 05:01:29;;;;;;;28.67;4.33;;;15.30;99.60;;;;;;4957178;28;20806;-74
2022/11/02 05:03:56;;;;;;;6.07;1.70;;;15.30;99.60;;;;;;4986086;28;20449;-73
2022/11/02 05:06:26;;;;;;;5.17;1.70;;;15.30;99.50;;;;;;4992580;28;20449;-73
2022/11/02 05:08:59;;;;;;;8.67;1.97;;;15.30;99.50;;;;;;4961789;28;20460;-73
2022/11/02 05:11:27;;;;;;;7.47;2.83;;;15.30;99.50;;;;;;4960134;28;20802;-73
2022/11/02 05:13:57;;;;;;;6.93;1.73;;;15.30;99.50;;;;;;5003075;28;20810;-73
2022/11/02 05:16:27;;;;;;;7.30;1.67;;;15.20;99.40;;;;;;5012167;28;20479;-74
2022/11/02 05:18:56;;;;;;;9.60;2.07;;;15.20;99.30;;;;;;4970570;28;20453;-74
2022/11/02 05:21:23;;;;;;;5.80;1.70;;;15.20;99.70;;;;;;4977631;28;20504;-73
2022/11/02 05:23:53;;;;;;;6.53;1.90;;;15.20;99.30;;;;;;4961515;28;20418;-73
2022/11/02 05:26:20;;;;;;;6.67;2.00;;;15.20;99.40;;;;;;4961522;28;20418;-73
2022/11/02 05:28:49;;;;;;;5.53;2.30;;;15.20;99.40;;;;;;4961385;28;20499;-73
2022/11/02 05:31:16;;;;;;;5.43;1.80;;;15.20;99.40;;;;;;4977502;28;20444;-74
2022/11/02 05:33:47;;;;;;;6.80;2.50;;;15.20;99.40;;;;;;4977351;28;20784;-73
2022/11/02 05:36:28;;;;;;;3.33;1.93;;;15.20;99.40;;;;;;4949003;28;20888;-73
2022/11/02 05:38:58;;;;;;;8.20;2.77;;;15.20;99.40;;;;;;4977176;28;20433;-73
2022/11/02 05:41:27;;;;;;;7.97;2.20;;;15.20;99.40;;;;;;4977175;28;20402;-74
2022/11/02 05:43:57;;;;;;;6.37;2.07;;;15.20;99.40;;;;;;4961180;28;20405;-74
2022/11/02 05:46:31;;;;;;;5.67;1.80;;;15.20;99.30;;;;;;4977229;28;20476;-74
2022/11/02 05:48:56;;;;;;;3.93;1.70;;;15.20;99.30;;;;;;4961264;28;20977;-74
2022/11/02 05:51:22;;;;;;;4.63;1.90;;;15.20;99.60;;;;;;4977165;28;20432;-74
2022/11/02 05:53:48;;;;;;;5.87;1.70;;;15.20;99.20;;;;;;4977493;28;20451;-74
2022/11/02 05:56:14;;;;;;;7.77;1.73;;;15.20;99.20;;;;;;4960663;28;20717;-76
2022/11/02 05:58:43;;;;;;;7.70;2.23;;;15.20;99.20;;;;;;4976531;28;20465;-73
2022/11/02 06:01:13;;;;;;;9.10;1.90;;;15.10;99.10;;;;;;4982404;28;20495;-74
2022/11/02 06:03:50;;;;;;;6.40;1.67;;;15.10;99.10;;;;;;4997298;28;20792;-74
2022/11/02 06:06:16;;;;;;;3.53;1.67;;;15.10;99.10;;;;;;5012944;28;20444;-75
2022/11/02 06:08:42;;;;;;;9.07;2.00;;;15.10;99.20;;;;;;5013697;28;20436;-75
2022/11/02 06:11:14;;;;;;;7.50;1.57;;;15.10;99.10;;;;;;5013872;28;20408;-75
2022/11/02 06:13:42;;;;;;;5.47;1.40;;;15.10;99.20;;;;;;4996139;28;20436;-74
2022/11/02 06:16:10;;;;;;;7.17;1.53;;;15.10;99.20;;;;;;4995824;28;20413;-74
2022/11/02 06:18:40;;;;;;;6.30;1.53;;;15.10;99.20;;;;;;4996106;28;20444;-75
2022/11/02 06:21:10;;;;;;;8.80;2.63;;;15.10;99.20;;;;;;4980026;28;20906;-74
2022/11/02 06:23:38;;;;;;;4.70;1.90;;;15.10;99.20;;;;;;4995885;28;20399;-74
2022/11/02 06:26:04;;;;;;;5.63;1.90;;;15.10;99.10;;;;;;4979993;28;20428;-74
2022/11/02 06:28:32;;;;;;;8.00;2.30;;;15.10;99.10;;;;;;4995973;28;20431;-74
2022/11/02 06:31:00;;;;;;;5.70;2.07;;;15.10;99.10;;;;;;4980182;28;20508;-74
2022/11/02 06:33:28;;;;;;;8.30;2.00;;;15.10;99.10;;;;;;5013594;28;20397;-75
2022/11/02 06:35:56;;;;;;;8.07;2.20;;;15.10;99.10;;;;;;4996154;28;20395;-74
2022/11/02 06:38:24;;;;;;;6.67;1.63;;;15.10;99.10;;;;;;4996098;28;20804;-75
2022/11/02 06:41:02;;;;;;;6.30;2.13;;;15.10;99.10;;;;;;5013836;28;20408;-75
2022/11/02 06:43:32;;;;;;;4.00;1.80;;;15.10;99.10;;;;;;4980971;28;20835;-74
2022/11/02 06:45:59;;;;;;;6.23;2.20;;;15.10;99.10;;;;;;4996611;28;20422;-74
2022/11/02 06:48:28;;;;;;;11.10;2.47;;;15.10;99.10;;;;;;5014097;28;20450;-74
2022/11/02 06:50:54;;;;;;;4.23;2.23;;;15.10;99.10;;;;;;4980404;28;20515;-74
2022/11/02 06:53:20;;;;;;;7.00;1.87;;;15.10;99.10;;;;;;4996254;28;20501;-74
2022/11/02 06:55:55;;;;;;;6.30;2.60;;;15.00;99.10;;;;;;4980693;28;20813;-74
2022/11/02 06:58:24;;;;;;;3.73;1.60;;;15.00;99.10;;;;;;4980671;28;20429;-74
2022/11/02 07:00:58;;;;;;;2.80;1.80;;;15.00;99.00;;;;;;5013939;28;20399;-73
2022/11/02 07:03:25;;;;;;;5.70;2.10;;;15.00;99.10;;;;;;4996612;28;20525;-74
2022/11/02 07:05:51;;;;;;;7.50;2.23;;;15.00;99.10;;;;;;4996258;28;20414;-73
2022/11/02 07:08:18;;;;;;;6.80;2.23;;;15.00;99.10;;;;;;5014015;28;20429;-74
2022/11/02 07:10:49;;;;;;;5.27;2.00;;;15.00;99.10;;;;;;5013821;28;20436;-74
2022/11/02 07:13:17;;;;;;;10.17;2.60;;;15.00;99.00;;;;;;4996748;28;20415;-74
2022/11/02 07:15:43;;;;;;;5.43;2.17;;;15.00;99.10;;;;;;4980169;28;20396;-74
2022/11/02 07:18:09;;;;;;;7.87;2.17;;;15.00;99.00;;;;;;4995995;28;20978;-74
2022/11/02 07:20:35;;;;;;;4.83;1.70;;;15.00;99.00;;;;;;4980049;28;20439;-73
2022/11/02 07:23:04;;;;;;;7.93;2.07;;;15.00;99.10;;;;;;5013614;28;20513;-74
2022/11/02 07:25:32;;;;;;;7.87;2.90;;;15.00;99.10;;;;;;4996503;28;20519;-74
2022/11/02 07:27:59;;;;;;;8.43;2.37;;;15.00;99.10;;;;;;4996615;28;20808;-74
2022/11/02 07:30:29;;;;;;;5.80;1.80;;;15.00;99.10;;;;;;4996016;28;20429;-74
2022/11/02 07:32:55;;;;;;;5.60;1.40;;;14.90;99.00;;;;;;4995935;28;20406;-73
2022/11/02 07:35:24;;;;;;;8.60;1.87;;;15.00;99.10;;;;;;4983240;28;21016;-73
2022/11/02 07:38:11;;;;;;;9.23;2.20;;;15.00;99.00;;;;;;4983551;28;20468;-74
2022/11/02 07:40:39;;;;;;;7.93;2.13;;;14.90;99.00;;;;;;4983878;28;20924;-74
2022/11/02 07:43:06;;;;;;;9.90;2.30;;;14.90;99.00;;;;;;4999482;28;20480;-73
2022/11/02 07:45:42;;;;;;;8.57;2.20;;;14.90;99.00;;;;;;4984673;28;20433;-74
2022/11/02 07:48:10;;;;;;;6.10;2.17;;;14.90;99.40;;;;;;4999866;28;20458;-74
2022/11/02 07:50:36;;;;;;;6.13;1.80;;;14.90;99.10;;;;;;5017028;28;20408;-74
2022/11/02 07:53:04;;;;;;;8.17;3.50;;;14.90;99.00;;;;;;5017218;28;20405;-74
2022/11/02 07:55:30;;;;;;;8.53;1.90;;;14.90;99.00;;;;;;5016752;28;20471;-74
2022/11/02 07:58:04;;;;;;;6.27;2.03;;;14.90;99.00;;;;;;4984035;28;21050;-74
2022/11/02 08:00:36;;;;;;;8.17;1.70;;;14.90;99.10;;;;;;4983121;28;20431;-74
2022/11/02 08:03:08;;;;;;;7.13;2.20;;;14.90;99.00;;;;;;5016621;28;20434;-74
2022/11/02 08:05:39;;;;;;;9.47;2.50;;;14.90;99.00;;;;;;5016671;28;20407;-74
2022/11/02 08:08:07;;;;;;;6.23;1.67;;;14.90;99.00;;;;;;4998970;28;20790;-74
2022/11/02 08:10:45;;;;;;;6.43;1.97;;;14.90;99.00;;;;;;5016721;28;20818;-73
2022/11/02 08:13:19;;;;;;;3.70;1.63;;;14.90;99.00;;;;;;4982220;28;20442;-73
2022/11/02 08:15:54;;;;;;;8.23;2.97;;;14.90;99.00;;;;;;4982011;28;20943;-74
2022/11/02 08:18:22;;;;;;;11.00;2.20;;;14.90;99.00;;;;;;5015775;28;20423;-74
2022/11/02 08:20:49;;;;;;;12.13;2.20;;;14.90;99.00;;;;;;4982103;28;20492;-74
2022/11/02 08:23:21;;;;;;;3.60;2.03;;;14.90;99.00;;;;;;4998196;28;20401;-74
2022/11/02 08:25:54;;;;;;;6.37;1.80;;;14.90;99.00;;;;;;4982107;28;20417;-74
2022/11/02 08:28:25;;;;;;;8.20;2.50;;;14.90;99.00;;;;;;5015807;28;20432;-73
2022/11/02 08:30:59;;;;;;;5.17;1.93;;;14.90;99.00;;;;;;4997323;28;20447;-74
2022/11/02 08:33:30;;;;;;;7.53;2.13;;;14.90;99.00;;;;;;4982306;28;20412;-74
2022/11/02 08:36:06;;;;;;;6.43;1.97;;;14.90;99.00;;;;;;4998145;28;20396;-74
2022/11/02 08:38:35;;;;;;;10.63;2.20;;;14.90;99.10;;;;;;5015313;28;20982;-74
2022/11/02 08:41:04;;;;;;;5.47;2.20;;;14.90;99.10;;;;;;5015283;28;20810;-73
2022/11/02 08:43:30;;;;;;;6.20;2.27;;;14.90;99.00;;;;;;5015100;28;20405;-74
2022/11/02 08:45:59;;;;;;;7.43;2.20;;;14.90;99.00;;;;;;4981147;28;20424;-75
2022/11/02 08:48:26;;;;;;;4.40;2.20;;;14.90;99.00;;;;;;4997647;28;20709;-73
2022/11/02 08:50:52;;;;;;;6.60;2.20;;;14.90;98.90;;;;;;4997661;28;20459;-74
2022/11/02 08:53:18;;;;;;;9.67;2.37;;;14.90;98.90;;;;;;4981441;28;20393;-74
2022/11/02 08:55:44;;;;;;;5.00;1.60;;;14.90;99.00;;;;;;4997468;28;20495;-74
2022/11/02 08:58:10;;;;;;;3.00;1.50;;;14.90;99.00;;;;;;4997291;28;20467;-73
2022/11/02 09:01:02;;;;;;;5.40;1.80;;;14.90;99.00;;;;;;4982897;28;20428;-74
2022/11/02 09:03:28;;;;;;;7.20;2.10;;;14.90;99.10;;;;;;4980870;28;20523;-73
2022/11/02 09:06:01;;;;;;;5.90;1.80;;;14.90;99.10;;;;;;4997501;28;20459;-74
2022/11/02 09:08:28;;;;;;;7.47;2.27;;;14.90;99.10;;;;;;5014588;28;20492;-73
2022/11/02 09:11:02;;;;;;;9.67;2.70;;;14.90;99.10;;;;;;4997336;28;20921;-74
2022/11/02 09:13:33;;;;;;;11.10;2.00;;;14.90;99.10;;;;;;4997364;28;20451;-73
2022/11/02 09:16:03;;;;;;;8.73;2.27;;;14.90;99.10;;;;;;5014564;28;20447;-75
2022/11/02 09:18:31;;;;;;;7.70;2.40;;;14.90;99.10;;;;;;4981099;28;20448;-75
2022/11/02 09:21:01;;;;;;;7.13;2.30;;;14.90;99.20;;;;;;4997037;28;20977;-75
2022/11/02 09:23:32;;;;;;;9.80;2.10;;;14.90;99.20;;;;;;5014831;28;20400;-75
2022/11/02 09:26:02;;;;;;;5.37;2.10;;;14.90;99.20;;;;;;4981274;28;20461;-75
2022/11/02 09:28:31;;;;;;;5.13;1.97;;;14.90;99.20;;;;;;5014459;28;20534;-76
2022/11/02 09:31:03;;;;;;;6.50;2.10;;;14.90;99.20;;;;;;4996994;28;20411;-75
2022/11/02 09:33:31;;;;;;;5.37;1.93;;;14.90;99.20;;;;;;4996887;28;20409;-75
2022/11/02 09:36:04;;;;;;;6.03;1.90;;;14.90;99.10;;;;;;4965413;28;20423;-75
2022/11/02 09:38:31;;;;;;;6.70;2.00;;;14.90;99.10;;;;;;4996760;28;20444;-75
2022/11/02 09:40:57;;;;;;;7.40;2.10;;;14.90;99.00;;;;;;4980526;28;20428;-75
2022/11/02 09:43:56;;;;;;;5.60;1.70;;;14.90;99.00;;;;;;4996774;28;20409;-75
2022/11/02 09:46:32;;;;;;;6.17;2.00;;;14.90;98.90;;;;;;5014159;28;20545;-75
2022/11/02 09:49:16;;;;;;;6.40;2.00;;;14.90;98.90;;;;;;4997645;28;20439;-74
2022/11/02 09:51:47;;;;;;;7.40;2.10;;;15.00;98.90;;;;;;5014066;28;20446;-73
2022/11/02 09:54:24;;;;;;;9.27;2.50;;;15.00;99.00;;;;;;4980687;28;20461;-73
2022/11/02 09:56:55;;;;;;;8.53;2.30;;;15.00;98.90;;;;;;5013022;28;20547;-73
2022/11/02 09:59:25;;;;;;;9.33;2.43;;;15.00;98.70;;;;;;4980451;28;20455;-73
2022/11/02 10:02:10;;;;;;;10.10;2.60;;;15.00;98.70;;;;;;4996409;28;20398;-73
2022/11/02 10:04:57;;;;;;;5.33;2.50;;;15.00;98.70;;;;;;4980277;28;20502;-73
2022/11/02 10:07:50;;;;;;;3.80;1.60;;;15.00;98.70;;;;;;4980011;28;20405;-73
2022/11/02 10:10:38;;;;;;;4.57;1.80;;;15.00;98.60;;;;;;4964362;28;20478;-73
2022/11/02 10:13:26;;;;;;;9.07;2.50;;;15.00;98.60;;;;;;4996000;28;20429;-73
2022/11/02 10:16:06;;;;;;;11.07;2.53;;;15.00;98.40;;;;;;4980355;28;20576;-73
2022/11/02 10:18:34;;;;;;;9.13;2.23;;;15.00;98.30;;;;;;4996165;28;20432;-73
2022/11/02 10:21:11;;;;;;;6.73;2.40;;;15.00;98.20;;;;;;5013698;28;20902;-73
2022/11/02 10:23:41;;;;;;;4.80;1.77;;;15.10;98.10;;;;;;5013416;28;20486;-73
2022/11/02 10:26:18;;;;;;;6.90;2.00;;;15.10;98.00;;;;;;4980016;28;20782;-73
2022/11/02 10:28:49;;;;;;;9.10;3.20;;;15.10;98.00;;;;;;4963704;28;20437;-73
2022/11/02 10:31:35;;;;;;;9.27;2.10;;;15.10;98.00;;;;;;4980015;28;20408;-73
2022/11/02 10:34:32;;;;;;;5.90;2.07;;;15.10;98.00;;;;;;4979753;28;20539;-73
2022/11/02 10:37:22;;;;;;;9.43;2.23;;;15.10;97.80;;;;;;4995175;28;20479;-73
2022/11/02 10:40:24;;;;;;;8.10;2.60;;;15.10;97.80;;;;;;4995838;28;20484;-73
2022/11/02 10:43:12;;;;;;;4.70;1.90;;;15.10;97.80;;;;;;5013741;28;20949;-73
2022/11/02 10:46:14;;;;;;;5.07;1.40;;;15.10;97.40;;;;;;4995940;28;20422;-73
2022/11/02 10:48:49;;;;;;;8.80;2.27;;;15.20;96.80;;;;;;4970795;28;20501;-73
2022/11/02 10:51:20;;;;;;;8.83;2.23;;;15.20;96.60;;;;;;4979707;28;20428;-73
2022/11/02 10:53:51;;;;;;;12.60;1.90;;;15.20;96.60;;;;;;5013260;28;20411;-73
2022/11/02 10:56:23;;;;;;;5.93;1.90;;;15.20;96.70;;;;;;4979590;28;20510;-73
2022/11/02 10:59:12;;;;;;;7.40;2.17;;;15.20;96.80;;;;;;4980090;28;20467;-73
2022/11/02 11:01:48;;;;;;;6.27;1.80;;;15.20;96.80;;;;;;4995744;28;20486;-73
2022/11/02 11:04:25;;;;;;;5.13;1.87;;;15.20;96.80;;;;;;4995573;28;20941;-74
2022/11/02 11:06:55;;;;;;;6.87;1.80;;;15.20;96.70;;;;;;5012870;28;20406;-73
2022/11/02 11:09:32;;;;;;;6.53;1.97;;;15.20;96.70;;;;;;4998367;28;20435;-75
2022/11/02 11:12:06;;;;;;;5.63;1.63;;;15.20;96.50;;;;;;5016074;28;20420;-75
2022/11/02 11:14:48;;;;;;;10.63;2.50;;;15.30;96.60;;;;;;5016784;28;20938;-75
2022/11/02 11:20:03;;;;;;;6.03;2.00;;;15.20;96.40;;;;;;5024574;28;20509;-73
2022/11/02 11:22:40;;;;;;;5.03;1.70;;;15.30;96.50;;;;;;5001141;28;20455;-71
2022/11/02 11:25:11;;;;;;;7.60;1.77;;;15.30;96.40;;;;;;4981287;28;20427;-72
2022/11/02 11:27:47;;;;;;;6.33;2.13;;;15.30;96.40;;;;;;4983294;28;20396;-72
2022/11/02 11:30:31;;;;;;;6.27;1.90;;;15.30;96.30;;;;;;4967929;28;20457;-73
2022/11/02 11:33:02;;;;;;;5.83;2.13;;;15.30;96.30;;;;;;4995096;28;20431;-71
2022/11/02 11:35:38;;;;;;;6.03;1.93;;;15.40;96.40;;;;;;5034883;28;20438;-72
2022/11/02 11:38:14;;;;;;;7.80;1.67;;;15.30;96.10;;;;;;4990433;28;20467;-72
2022/11/02 11:40:46;;;;;;;7.87;2.00;;;15.40;96.10;;;;;;5002516;28;20435;-73
2022/11/02 11:43:16;;;;;;;6.90;1.30;;;15.40;96.10;;;;;;4981710;28;20435;-73
2022/11/02 11:46:05;;;;;;;5.00;1.63;;;15.40;96.00;;;;;;5015314;28;20409;-73
2022/11/02 11:48:51;;;;;;;7.40;1.70;;;15.40;95.90;;;;;;5010573;28;20595;-73
2022/11/02 11:51:25;;;;;;;4.90;1.90;;;15.40;95.90;;;;;;5021343;28;20431;-72
2022/11/02 11:54:25;;;;;;;10.57;2.67;;;15.40;95.80;;;;;;5016888;28;20493;-73
2022/11/02 11:56:57;;;;;;;4.70;1.70;;;15.50;95.90;;;;;;4973915;28;20531;-73
2022/11/02 11:59:43;;;;;;;7.37;1.93;;;15.50;95.80;;;;;;4997649;28;20537;-72
2022/11/02 12:02:25;;;;;;;9.60;2.10;;;15.40;95.90;;;;;;5015849;28;20452;-73
2022/11/02 12:05:01;;;;;;;6.23;2.00;;;15.50;96.00;;;;;;4997044;28;20504;-73
2022/11/02 12:07:33;;;;;;;6.80;1.70;;;15.50;96.10;;;;;;5008356;28;20429;-73
2022/11/02 12:10:30;;;;;;;4.87;1.93;;;15.50;96.10;;;;;;5019096;28;20419;-73
2022/11/02 12:13:32;;;;;;;4.87;1.63;;;15.50;96.10;;;;;;5030712;28;20437;-73
2022/11/02 12:16:30;;;;;;;4.97;2.00;;;15.50;96.30;;;;;;5000048;28;20926;-73
2022/11/02 12:19:13;;;;;;;5.27;1.47;;;15.50;96.10;;;;;;4997948;28;20469;-73
2022/11/02 12:22:09;;;;;;;7.37;2.07;;;15.50;96.30;;;;;;5004887;28;20510;-73
2022/11/02 12:24:48;;;;;;;5.90;1.70;;;15.50;96.30;;;;;;4946034;28;20499;-72
2022/11/02 12:27:51;;;;;;;7.83;1.80;;;15.50;96.40;;;;;;5033555;28;20447;-73
2022/11/02 12:30:42;;;;;;;18.40;1.90;;;15.60;96.40;;;;;;5015044;28;20423;-73
2022/11/02 12:33:45;;;;;;;9.37;2.33;;;15.60;96.30;;;;;;4997700;28;20441;-73
2022/11/02 12:36:24;;;;;;;5.17;1.80;;;15.60;96.10;;;;;;5011877;28;20420;-73
2022/11/02 12:39:06;;;;;;;6.50;1.83;;;15.60;96.00;;;;;;5009266;28;20455;-73
2022/11/02 12:42:03;;;;;;;6.80;2.30;;;15.60;95.80;;;;;;5013607;28;20479;-73
2022/11/02 12:44:58;;;;;;;7.23;1.40;;;15.60;95.90;;;;;;5006292;28;21072;-73
2022/11/02 12:48:02;;;;;;;6.77;1.73;;;15.60;95.90;;;;;;4966910;28;20444;-73
2022/11/02 12:51:06;;;;;;;8.40;2.93;;;15.60;96.00;;;;;;5016674;28;20430;-73
2022/11/02 12:53:50;;;;;;;9.70;2.77;;;15.60;96.10;;;;;;5010451;28;20438;-73
2022/11/02 12:56:24;;;;;;;6.93;2.30;;;15.60;96.10;;;;;;5016066;28;20502;-72
2022/11/02 12:58:51;;;;;;;5.50;2.23;;;15.60;96.10;;;;;;4985365;28;20538;-73
2022/11/02 13:01:45;;;;;;;5.63;1.77;;;15.60;96.00;;;;;;5002031;28;20435;-73
2022/11/02 13:04:16;;;;;;;3.43;1.90;;;15.60;95.80;;;;;;5013652;28;20459;-73
2022/11/02 13:06:48;;;;;;;7.40;2.17;;;15.70;95.90;;;;;;4990993;28;20480;-73
2022/11/02 13:09:21;;;;;;;8.90;2.70;;;15.70;95.80;;;;;;5020611;28;20510;-73
2022/11/02 13:12:19;;;;;;;6.03;2.00;;;15.60;95.80;;;;;;5000782;28;20455;-73
2022/11/02 13:14:48;;;;;;;5.97;1.93;;;15.70;95.90;;;;;;5004721;28;20474;-73
2022/11/02 13:17:40;;;;;;;7.53;1.87;;;15.60;95.80;;;;;;4998733;28;20825;-73
2022/11/02 13:20:54;;;;;;;7.00;2.10;;;15.70;95.80;;;;;;5006027;28;20834;-72
2022/11/02 13:23:39;;;;;;;11.37;2.33;;;15.60;95.80;;;;;;5028149;28;20411;-73
2022/11/02 13:26:36;;;;;;;5.97;1.80;;;15.60;95.90;;;;;;5013030;28;20451;-74
2022/11/02 13:29:36;;;;;;;9.80;1.90;;;15.60;96.10;;;;;;4998162;28;20528;-71
2022/11/02 13:32:18;;;;;;;8.00;1.80;;;15.70;96.20;;;;;;4980110;28;20564;-74
2022/11/02 13:34:47;;;;;;;11.20;2.20;;;15.70;96.20;;;;;;5027649;28;20407;-73
2022/11/02 13:37:20;;;;;;;5.50;1.93;;;15.70;96.20;;;;;;4997539;28;20991;-74
2022/11/02 13:39:55;;;;;;;10.70;2.30;;;15.70;96.20;;;;;;5031842;28;20441;-74
2022/11/02 13:42:33;;;;;;;4.23;1.83;;;15.70;96.20;;;;;;5012938;28;20473;-73
2022/11/02 13:45:43;;;;;;;4.33;1.77;;;15.70;96.30;;;;;;5011032;28;20425;-73